MET: Información y Pronóstico Aeronáutico

///////////////////////////////////////////////////////////////////////////////////////////////////////////////////////////////////////////////////////////////////////////////////////////////////////////////////////////////////////////////

Member for

7 meses 1 semana
Enviado por meteorologia el Jue, 23/11/2017 - 11:39
18-2

18 DE FEBRERO 2018

INFORMACION METEOROLOGICA AERONAUTICA (METAR) 18:00 UTC

 

Aeropuerto AEROPARQUE J. NEWBERY

18 - 18:00 METAR SABE 181800Z 03006KT 360V070 9999 SCT029TCU 29/23 Q1008 NOSIG =

Aeropuerto BAHIA BLANCA

18 - 18:00 METAR SAZB 181800Z 27016KT 9999 FEW035 37/13 Q1002 =

Aeropuerto BARILOCHE

18 - 18:00 METAR SAZS 181800Z 32032G41KT 9999 SCT046 BKN050 19/09 Q1011 =

Aeropuerto CATAMARCA

18 - 18:00 METAR SANC 181800Z 18006KT 9999 FEW050 34/19 Q1006 =

Aeropuerto CHAPELCO

18 - 18:00 METAR SAZY 181800Z 27024G34KT 9999 FEW038 FEW100 21/10 Q1011 =

Aeropuerto COMODORO RIVADAVIA

18 - 18:00 METAR SAVC 181800Z 18009KT 120V240 9999 FEW010 SCT013 BKN070 12/09 Q1009 =

Aeropuerto CORDOBA

18 - 18:00 METAR SACO 181800Z 05014KT 9999 FEW030 FEW035TCU 31/21 Q1009 NOSIG =

Aeropuerto CORRIENTES

18 - 18:00 METAR SARC 181800Z 05003KT 9999 BKN030TCU 32/21 Q1007 =

Aeropuerto EL CALAFATE

18 - 18:00 METAR SAWC 181800Z 27010KT 9999 FEW045 13/M03 Q1004 =

Aeropuerto EL PALOMAR

18 - 17:00 METAR SADP 181700Z 34007KT 9999 BKN042 30/20 Q1009 =

Aeropuerto ESQUEL

18 - 18:00 METAR SAVE 181800Z 29023G40KT 9999 FEW035 20/05 Q1008 =

Aeropuerto EZEIZA

18 - 18:00 METAR SAEZ 181800Z 01007KT 310V020 CAVOK 32/21 Q1007 NOSIG =

Aeropuerto FORMOSA

18 - 17:00 METAR SARF 181700Z 34005KT 9999 BKN025 33/22 Q1008 =

Aeropuerto IGUAZU/CATARATAS

18 - 18:00 METAR SARI 181800Z 23004KT 8000 -TSRA SCT025 FEW050CB BKN100 24/20 Q1008 =

Aeropuerto JUJUY

18 - 18:00 METAR SASJ 181800Z 07007KT 360V110 9999 FEW030 29/18 Q1011 =

Aeropuerto LA RIOJA

18 - 18:00 METAR SANL 181800Z 27002KT CAVOK 34/17 Q1007 =

Aeropuerto MALARGUE

18 - 18:00 METAR SAMM 181800Z 32006KT CAVOK 32/01 Q1014 =

Aeropuerto MAR DEL PLATA

18 - 18:00 METAR SAZM 181800Z 34018G28KT 310V010 CAVOK 33/17 Q1005 =

Aeropuerto MENDOZA

18 - 18:00 METAR SAME 181800Z 09008KT 9999 FEW040 FEW050TCU 35/12 Q1008 =

Aeropuerto MORON

18 - 18:00 METAR SADM 181800Z 34009KT 9999 SCT040 SCT050TCU 32/21 Q1007 =

Aeropuerto NEUQUEN

18 - 18:00 METAR SAZN 181800Z 25011KT CAVOK 30/02 Q1008 =

Aeropuerto PARANA

18 - 18:00 METAR SAAP 181800Z 34005KT 9999 FEW025 32/21 Q1008 =

Aeropuerto POSADAS

18 - 18:00 METAR SARP 181800Z 27004KT 9999 SCT035 31/21 Q1008 =

Aeropuerto PUERTO MADRYN

18 - 18:00 METAR SAVY 181800Z 25020G30KT 9999 FEW030 BKN200 29/08 Q1002 =

Aeropuerto RECONQUISTA

18 - 18:00 METAR SATR 181800Z 09007KT 9999 FEW025 33/21 Q1008 =

Aeropuerto RESISTENCIA

18 - 17:00 METAR SARE 181700Z 13003KT 9999 SCT040TCU 31/22 Q1007 =

Aeropuerto RIO CUARTO

18 - 18:00 METAR SAOC 181800Z 09009KT CAVOK 31/19 Q1008 =

Aeropuerto RIO GALLEGOS

18 - 18:00 METAR SAWG 181800Z 25015KT 9999 SCT025 SCT030 13/M01 Q1001 =

Aeropuerto RIO GRANDE

18 - 17:00 METAR SAWE 181700Z 25019KT 9999 SCT021 13/01 Q0997 =

Aeropuerto ROSARIO

18 - 17:00 METAR SAAR 181700Z 02011KT 9999 SCT030 31/21 Q1008 =

Aeropuerto SALTA

18 - 18:00 METAR SASA 181800Z 05004KT 9999 BKN025 27/17 Q1012 =

Aeropuerto SAN FERNANDO

18 - 18:00 METAR SADF 181800Z 29008KT 9999 SCT035 21/20 Q1008 =

Aeropuerto SAN JUAN

18 - 18:00 METAR SANU 181800Z 14011KT 9999 FEW045 35/14 Q1008 =

Aeropuerto SAN LUIS

18 - 18:00 METAR SAOU 181800Z 00000KT 9999 SCT040 34/16 Q1009 =

Aeropuerto SAN RAFAEL

18 - 18:00 METAR SAMR 181800Z 09010KT 9999 FEW040 34/13 Q1010 =

Aeropuerto SANTA ROSA

18 - 18:00 METAR SAZR 181800Z 20006KT CAVOK 36/15 Q1005 =

Aeropuerto SANTIAGO DEL ESTERO

18 - 18:00 METAR SANE 181800Z 05006KT CAVOK 34/19 Q1006 =

Aeropuerto SAUCE VIEJO

18 - 18:00 METAR SAAV 181800Z 11008KT 9999 SCT040 31/22 Q1007 =

Aeropuerto TANDIL

18 - 18:00 METAR SAZT 181800Z 32015KT 9999 FEW020 32/16 Q1006 =

Aeropuerto TERMAS DE RIO HONDO

18 - 18:00 METAR SANR 181800Z 36002KT 9999 SCT040 33/18 Q1006 =

Aeropuerto TRELEW

18 - 18:00 METAR SAVT 181800Z 29015KT 9999 SCT035 BKN100 29/06 Q1001 =

Aeropuerto TUCUMAN

18 - 18:00 METAR SANT 181800Z 07008KT 9999 FEW040 32/21 Q1007 =

Aeropuerto USHUAIA

18 - 18:00 METAR SAWH 181800Z 23018KT 9999 FEW035 09/M02 Q0996 =

Aeropuerto VIEDMA

18 - 18:00 METAR SAVV 181800Z 18010KT CAVOK 30/07 Q1002 =

Aeropuerto VILLA REYNOLDS

18 - 18:00 METAR SAOR 181800Z 14005KT 9999 SCT035 35/13 Q1008 =

 

 PRONOSTICO DE AERODROMO (TAF) 17:00 UTC

 

Estación AEROPARQUE J. NEWBERY

18 - 17:00 TAF SABE 181700Z 1818/1918 03010KT 9999 SCT030 FEW050TCU TX32/1918Z TN25/1909Z BECMG 1900/1903 33005KT CAVOK BECMG 1906/1909 9999 FEW030 BECMG 1915/1918 02010KT 9999 FEW050TCU =

Estación BAHIA BLANCA

18 - 17:00 TAF SAZB 181700Z 1818/1918 24015G25KT 9999 SCT030 TX33/1819Z TN18/1910Z BECMG 1819/1822 15015KT BECMG 1900/1903 07010KT CAVOK BECMG 1911/1913 VRB05KT =

Estación BARILOCHE

18 - 17:00 TAF SAZS 181700Z 1818/1918 30030G40KT 9999 SCT030 BKN045 TX20/1919Z TN10/1910Z PROB30 TEMPO 1823/1906 27020G30KT 8000 -SHRA SCT020 BKN030 BECMG 1907/1910 30010KT 9999 SCT030 BECMG 1912/1915 32020KT 9999 FEW040 =

Estación CATAMARCA

18 - 17:00 TAF SANC 181700Z 1818/1918 23005KT 9999 SCT045 TX38/1918Z TN23/1910Z BECMG 1900/1903 05010KT BECMG 1914/1916 14005KT =

Estación CHAPELCO

18 - 17:00 TAF SAZY 181700Z 1818/1918 27025G35KT 9999 SCT010 SCT020 TX22/1818Z TN10/1910Z BECMG 1900/1903 27010G20KT BECMG 1912/1915 27020G30KT CAVOK =

Estación COMODORO RIVADAVIA

18 - 17:00 TAF SAVC 181700Z 1818/1918 20015KT 9999 BKN015 BKN060 TX18/1819Z TN13/1906Z BECMG 1819/1822 VRB12KT BKN030 BECMG 1900/1902 02010KT CAVOK BECMG 1906/1909 34015KT BECMG 1912/1918 29025G35KT =

Estación CORDOBA

18 - 17:00 TAF SACO 181700Z 1818/1918 05015KT 9999 SCT030 TX36/1918Z TN20/1910Z PROB40 TEMPO 1820/1900 25010KT 7000 SCT020 FEW040CB BECMG 1901/1903 36005KT CAVOK BECMG 1908/1911 14005KT =

Estación CORRIENTES

18 - 17:00 TAF SARC 181700Z 1818/1918 09005KT 9999 SCT035 FEW045TCU TX35/1918Z TN23/1909Z BECMG 1821/1823 CAVOK BECMG 1915/1917 9999 SCT035 FEW045TCU =

Estación EL CALAFATE

18 - 17:00 TAF SAWC 181700Z 1818/1918 27015KT 9999 SCT045 TX15/1819Z TN07/1910Z BECMG 1821/1900 32010KT 9999 FEW030 SCT090 BECMG 1903/1906 02015KT BECMG 1909/1912 27020KT 9000 RA SCT020 SCT030 OVC050 BECMG 1912/1918 27030G40KT =

Estación EL PALOMAR

18 - 17:00 TAF SADP 181700Z 1818/1918 36010KT 9999 SCT040 FEW050 TX35/1918Z TN23/1909Z BECMG 1900/1903 05005KT CAVOK BECMG 1906/1909 33005KT BECMG 1912/1915 27010KT =

Estación ESQUEL

18 - 17:00 TAF SAVE 181700Z 1818/1918 27025G35KT 9999 SCT030 TX23/1819Z TN09/1910Z TEMPO 1818/1821 27037G47KT BECMG 1900/1909 29010KT SCT035 BKN060 BECMG 1912/1918 27025K35KT =

Estación EZEIZA

18 - 17:00 TAF SAEZ 181700Z 1818/1918 36010KT 9999 SCT040 FEW050 TX35/1918Z TN23/1909Z BECMG 1900/1903 05005KT CAVOK BECMG 1906/1909 33005KT BECMG 1912/1915 27010KT =

Estación FORMOSA

18 - 17:00 TAF SARF 181700Z 1818/1918 05005KT 9999 BKN025 TX35/1918Z TN23/1909Z BECMG 1821/1823 CAVOK BECMG 1915/1917 9999 SCT035 FEW045TCU =

Estación IGUAZU/CATARATAS

18 - 17:45 SARI 181745Z 1818/1918 05005KT 8000 -TSRA SCT030 FEW045CB TX34/1918 TN20/1909Z BECMG 1822/1824 36010KT 9999 SCT020 SCT070 BECMG 1905/1907 9999 SCT010 PROB40 1907/1910 VRB03KT 3000 BR NSC BECMG 1911/1913 CAVOK BECMG 1915/1917 09010KT 9999 SCT30 FEW045TCU =

Estación JUJUY

18 - 17:00 TAF SASJ 181700Z 1818/1918 07010KT 9999 SCT030 TX32/1918Z TN17/1910Z TEMPO 1822/1903 25005KT 5000 TSRA BKN020 FEW040CB BECMG 1908/1911 14005KT 9999 SCT020 =

Estación LA RIOJA

18 - 17:00 TAF SANL 181700Z 1818/1918 18010KT CAVOK TX36/1918Z TN23/1910Z BECMG 1900/1903 23005KT =

Estación MAR DEL PLATA

18 - 17:00 TAF SAZM 181700Z 1818/1918 32015G25KT 9999 SCT030 SCT040TCU TX27/1918Z TN21/1910Z TEMPO 1822/1904 5000 TSRA SCT045TCU FEW050CB BKN050 BECMG 1906/1909 18010KT 9999 SCT030 =

Estación MENDOZA

18 - 17:00 TAF SAME 181700Z 1818/1918 09010KT 9999 FEW040 TX37/1820Z TN22/1910Z PROB40 TEMPO 1823/1902 VRB10KT 6000 TSRA BKN030 FEW040CB BECMG 1902/1904 VRB03KT 9999 FEW040 =

Estación NEUQUEN

18 - 17:00 TAF SAZN 181700Z 1818/1918 25010KT CAVOK TX32/1919Z TN18/1910Z PROB30 TEMPO 1818/1823 25020KT 9000 -RA SCT030 SCT080 BECMG 1900/1903 25015KT CAVOK BECMG 1906/1909 27005KT 9999 SCT035 BECMG 1913/1916 29015KT =

Estación PARANA

18 - 17:00 TAF SAAP 181700Z 1818/1918 36005KT 9999 FEW040 TX36/1918Z TN23/1909Z BECMG 1900/1903 04005KT CAVOK PROB30 1912/1915 33005KT =

Estación POSADAS

18 - 17:00 TAF SARP 181700Z 1818/1918 23010KT 9999 SCT035 TX34/1918Z TN23/1909Z BECMG 1821/1823 CAVOK BECMG 1915/1917 05010KT 9999 SCT035 FEW045TCU =

Estación RESISTENCIA

18 - 17:00 TAF SARE 181700Z 1818/1918 09005KT 9999 SCT035 FEW045TCU TX35/1918Z TN23/1909Z BECMG 1821/1823 CAVOK BECMG 1915/1917 9999 SCT035 FEW045TCU =

Estación RIO CUARTO

18 - 17:00 TAF SAOC 181700Z 1818/1918 02010KT 9999 SCT030 TX35/1918Z TN19/1910Z PROB40 TEMPO 1820/1900 FEW040CB BECMG 1908/1910 23010KT CAVOK BECMG 1914/1916 05010KT 9999 SCT030 FEW040CB =

Estación RIO GALLEGOS

18 - 17:00 TAF SAWG 181700Z 1818/1918 25020KT 9999 SCT035 TX14/1819Z TN08/1910Z PROB40 TEMPO 1818/1821 27020G30KT SHRA SCT030 FEW040TCU BKN070 BECMG 1821/1823 25020KT BKN030 BECMG 1900/1903 VRB15KT BECMG 1906/1909 36015G25KT BKN035 OVC050 BECMG 1912/1918 29030G40KT PROB30 TEMPO 1912/1915 SHRA BKN020 BKN035 =

Estación RIO GRANDE

18 - 17:00 TAF SAWE 181700Z 1818/1918 25020G30KT 9999 SCT020 SCT040 TX15/1819Z TN06/1910Z BECMG 1901/1903 VRB10KT -RA BKN015 OVC050 BECMG 1909/1915 36015G25KT 6000 RA BECMG 1915/1918 29025G35KT =

Estación ROSARIO

18 - 17:00 TAF SAAR 181700Z 1818/1918 02010KT 9999 SCT030 FEW050TCU TX36/1918Z TN22/1909Z BECMG 1922/1901 CAVOK BECMG 1903/1906 33005KT BECMG 1913/1916 02005KT 9999 FEW050TCU =

Estación SALTA

18 - 17:00 TAF SASA 181700Z 1818/1918 09005KT 9999 BKN030 TX31/1918Z TN17/1910Z BECMG 1822/1902 05010KT 9999 SCT030 FEW040CB TEMPO 1901/1905 25005KT 5000 TSRA BKN020 FEW040CB BECMG 1908/1911 14005KT 9999 SCT020 =

Estación SAN FERNANDO

18 - 17:00 SADF 181700Z 1818/1918 31010KT 9999 SCT035 TX34/1918Z TN22/1909Z BECMG 1822/1900 36005KT CAVOK BECMG 1911/1913 25005KT =

Estación SAN JUAN

18 - 17:00 TAF SANU 181700Z 1818/1918 16010KT 9999 FEW040 TX38/1820Z TN23/1910Z BECMG 1900/1902 VRB03KT CAVOK =

Estación SAN LUIS

18 - 17:00 TAF SAOU 181700Z 1818/1918 VRB03KT 9999 FEW030 TX36/1820Z TN23/1909Z BECMG 1900/1902 36010KT 9999 FEW040 =

Estación SAN RAFAEL

18 - 17:00 TAF SAMR 181700Z 1818/1918 14010KT 9999 FEW040 TX37/1820Z TN22/1910Z PROB40 TEMPO 1904/1908 18010KT 6000 TSRA BKN030 FEW040CB BECMG 1909/1911 16010KT 9999 FEW040 =

Estación SANTA ROSA

18 - 17:00 TAF SAZR 181700Z 1818/1918 23015KT CAVOK TX35/1918Z TN20/1909Z BECMG 1900/1903 25005KT =

Estación SANTIAGO DEL ESTERO

18 - 17:00 TAF SANE 181700Z 1818/1918 02010KT CAVOK TX37/1918Z TN23/1910Z BECMG 1903/1906 36005KT =

Estación SAUCE VIEJO

18 - 17:00 TAF SAAV 181700Z 1818/1918 36005KT 9999 FEW040 TX36/1918Z TN23/1909Z BECMG 1900/1903 04005KT CAVOK PROB30 1912/1915 33005KT =

Estación TERMAS DE RIO HONDO

18 - 17:00 TAF SANR 181700Z 1818/1918 36005KT 9999 SCT030 TX36/1918Z TN23/1910Z BECMG 1900/1903 27005KT BECMG 1914/1916 23005KT =

Estación TRELEW

18 - 17:00 TAF SAVT 181700Z 1818/1918 27020KT 9999 SCT035 SCT070 TX30/1819Z TN13/1907Z BECMG 1819/1821 16015G25KT BECMG 1901/1909 VRB15KT CAVOK BECMG 1912/1918 27015KT =

Estación TUCUMAN

18 - 17:00 TAF SANT 181700Z 1818/1918 11010KT 9999 SCT035 TX34/1918Z TN21/1910Z PROB40 TEMPO 1820/1900 FEW040CB BECMG 1902/1905 27005KT CAVOK BECMG 1912/1914 14005KT =

Estación USHUAIA

18 - 17:00 TAF SAWH 181700Z 1818/1918 23020G30KT 9999 SCT035 TX11/1819Z TN03/1910Z TEMPO 1818/1821 9000 SHRA BKN025 BKN060 BECMG 1820/1823 VRB03KT BECMG 1900/1903 03015KT BECMG 1903/1912 02020G30KT 8000 RA BKN015 OVC030 =

Estación VIEDMA

18 - 17:00 TAF SAVV 181700Z 1818/1918 16020KT CAVOK TX32/1819Z TN18/1907Z BECMG 1821/1918 VRB12KT =